ABX250 ENBR-EKEB
Flight info
| Callsign | ABX250 |
|---|---|
| Flight time | N/A |
| Altitude | 15000 |
| Route | TUXIL DCT ZOL/N0236F130 P992 BAVTA |
| Aircraft | YS11/M-SDFHY/C |
Departure
| Time | 2026-04-30 22:04 |
|---|---|
| Airport | Bergen Airport, Flesland (ENBR) |
Arrival
| Time | N/A |
|---|---|
| Airport | Esbjerg Airport (EKEB) |
| Time | Latitude | Longitude | Altitude | Speed | Heading |
|---|---|---|---|---|---|
| 2026-04-30 21:45 | 60.28403 | 5.22673 | 160 ft | 0 kts | 96° |
| 2026-04-30 21:56 | 60.28405 | 5.22682 | 160 ft | 1 kts | 49° |
| 2026-04-30 21:56 | 60.28413 | 5.22680 | 160 ft | 2 kts | 308° |
| 2026-04-30 21:56 | 60.28408 | 5.22631 | 160 ft | 5 kts | 259° |
| 2026-04-30 21:56 | 60.28422 | 5.22571 | 160 ft | 5 kts | 338° |
| 2026-04-30 21:57 | 60.28450 | 5.22560 | 162 ft | 4 kts | 351° |
| 2026-04-30 21:57 | 60.28478 | 5.22551 | 163 ft | 5 kts | 350° |
| 2026-04-30 21:57 | 60.28515 | 5.22538 | 164 ft | 7 kts | 351° |
| 2026-04-30 21:57 | 60.28579 | 5.22517 | 165 ft | 10 kts | 350° |
| 2026-04-30 21:58 | 60.28645 | 5.22495 | 165 ft | 9 kts | 350° |
| 2026-04-30 21:58 | 60.28683 | 5.22426 | 165 ft | 8 kts | 265° |
| 2026-04-30 21:58 | 60.28713 | 5.22350 | 164 ft | 9 kts | 351° |
| 2026-04-30 21:58 | 60.28777 | 5.22328 | 162 ft | 10 kts | 350° |
| 2026-04-30 21:59 | 60.28843 | 5.22305 | 162 ft | 9 kts | 351° |
| 2026-04-30 21:59 | 60.28911 | 5.22283 | 162 ft | 11 kts | 350° |
| 2026-04-30 21:59 | 60.28991 | 5.22255 | 162 ft | 12 kts | 350° |
| 2026-04-30 22:00 | 60.29154 | 5.22202 | 163 ft | 12 kts | 351° |
| 2026-04-30 22:00 | 60.29331 | 5.22141 | 161 ft | 14 kts | 350° |
| 2026-04-30 22:00 | 60.29433 | 5.22108 | 157 ft | 15 kts | 351° |
| 2026-04-30 22:01 | 60.29537 | 5.22073 | 153 ft | 16 kts | 351° |
| 2026-04-30 22:01 | 60.29649 | 5.22035 | 148 ft | 16 kts | 350° |
| 2026-04-30 22:01 | 60.29720 | 5.21969 | 148 ft | 10 kts | 284° |
| 2026-04-30 22:01 | 60.29717 | 5.21896 | 148 ft | 0 kts | 260° |
| 2026-04-30 22:02 | 60.29716 | 5.21894 | 148 ft | 2 kts | 261° |
| 2026-04-30 22:02 | 60.29708 | 5.21788 | 149 ft | 10 kts | 261° |
| 2026-04-30 22:02 | 60.29679 | 5.21703 | 150 ft | 7 kts | 173° |
| 2026-04-30 22:03 | 60.29648 | 5.21714 | 149 ft | 0 kts | 170° |
| 2026-04-30 22:03 | 60.29343 | 5.21817 | 155 ft | 91 kts | 171° |
| 2026-04-30 22:03 | 60.28575 | 5.22076 | 265 ft | 123 kts | 170° |
| 2026-04-30 22:03 | 60.27705 | 5.22392 | 691 ft | 134 kts | 170° |
| 2026-04-30 22:04 | 60.26721 | 5.22707 | 1120 ft | 152 kts | 172° |
| 2026-04-30 22:04 | 60.25648 | 5.23033 | 1569 ft | 163 kts | 172° |
| 2026-04-30 22:04 | 60.23310 | 5.23840 | 2495 ft | 178 kts | 172° |
| 2026-04-30 22:05 | 60.22067 | 5.24263 | 2944 ft | 184 kts | 173° |
| 2026-04-30 22:05 | 60.20792 | 5.24676 | 3384 ft | 188 kts | 174° |
| 2026-04-30 22:05 | 60.19504 | 5.25101 | 3819 ft | 183 kts | 174° |
| 2026-04-30 22:05 | 60.18291 | 5.25520 | 4237 ft | 171 kts | 174° |
| 2026-04-30 22:06 | 60.17148 | 5.25910 | 4650 ft | 162 kts | 175° |
| 2026-04-30 22:06 | 60.15025 | 5.26603 | 5487 ft | 150 kts | 176° |
| 2026-04-30 22:06 | 60.13991 | 5.26944 | 5815 ft | 152 kts | 177° |
| 2026-04-30 22:07 | 60.12926 | 5.27292 | 6075 ft | 158 kts | 177° |
| 2026-04-30 22:07 | 60.11827 | 5.27656 | 6337 ft | 162 kts | 177° |
| 2026-04-30 22:07 | 60.10700 | 5.28037 | 6595 ft | 166 kts | 177° |
| 2026-04-30 22:07 | 60.09546 | 5.28445 | 6860 ft | 170 kts | 177° |
| 2026-04-30 22:08 | 60.08370 | 5.28790 | 7104 ft | 172 kts | 179° |
| 2026-04-30 22:08 | 60.07170 | 5.29061 | 7341 ft | 175 kts | 180° |
| 2026-04-30 22:08 | 60.05967 | 5.29359 | 7567 ft | 178 kts | 178° |
| 2026-04-30 22:08 | 60.04731 | 5.29716 | 7799 ft | 181 kts | 178° |
| 2026-04-30 22:09 | 60.03474 | 5.30076 | 8036 ft | 183 kts | 178° |
| 2026-04-30 22:09 | 60.02208 | 5.30407 | 8282 ft | 184 kts | 179° |
| 2026-04-30 22:09 | 60.00932 | 5.30734 | 8523 ft | 186 kts | 179° |
| 2026-04-30 22:09 | 59.99646 | 5.31078 | 8775 ft | 187 kts | 179° |
| 2026-04-30 22:10 | 59.98352 | 5.31434 | 9029 ft | 188 kts | 179° |
| 2026-04-30 22:10 | 59.97053 | 5.31784 | 9286 ft | 189 kts | 179° |
| 2026-04-30 22:10 | 59.95749 | 5.32127 | 9542 ft | 189 kts | 179° |
| 2026-04-30 22:10 | 59.94461 | 5.32468 | 9827 ft | 189 kts | 179° |
| 2026-04-30 22:11 | 59.91854 | 5.33166 | 10361 ft | 189 kts | 180° |
| 2026-04-30 22:11 | 59.90547 | 5.33514 | 10603 ft | 189 kts | 180° |
| 2026-04-30 22:11 | 59.89244 | 5.33859 | 10854 ft | 189 kts | 180° |
| 2026-04-30 22:12 | 59.87939 | 5.34206 | 11123 ft | 189 kts | 180° |
| 2026-04-30 22:12 | 59.86639 | 5.34553 | 11386 ft | 188 kts | 180° |
| 2026-04-30 22:12 | 59.85342 | 5.34896 | 11644 ft | 188 kts | 180° |
| 2026-04-30 22:12 | 59.84064 | 5.35232 | 11903 ft | 188 kts | 180° |
| 2026-04-30 22:13 | 59.82769 | 5.35574 | 12168 ft | 188 kts | 180° |
| 2026-04-30 22:13 | 59.81473 | 5.35923 | 12427 ft | 189 kts | 180° |
| 2026-04-30 22:13 | 59.80171 | 5.36310 | 12691 ft | 189 kts | 180° |
| 2026-04-30 22:13 | 59.78866 | 5.36550 | 12970 ft | 188 kts | 184° |
| 2026-04-30 22:14 | 59.77557 | 5.36676 | 13228 ft | 189 kts | 184° |
| 2026-04-30 22:14 | 59.76240 | 5.36884 | 13494 ft | 191 kts | 181° |
| 2026-04-30 22:14 | 59.74914 | 5.37162 | 13756 ft | 192 kts | 181° |
| 2026-04-30 22:14 | 59.73581 | 5.37390 | 14025 ft | 192 kts | 182° |
| 2026-04-30 22:15 | 59.72262 | 5.37574 | 14267 ft | 193 kts | 182° |
| 2026-04-30 22:15 | 59.70917 | 5.37788 | 14510 ft | 195 kts | 182° |
| 2026-04-30 22:15 | 59.69565 | 5.38034 | 14743 ft | 196 kts | 182° |
| 2026-04-30 22:15 | 59.68201 | 5.38266 | 14979 ft | 197 kts | 182° |
| 2026-04-30 22:16 | 59.66832 | 5.38476 | 15222 ft | 199 kts | 182° |
| 2026-04-30 22:16 | 59.65448 | 5.38662 | 15469 ft | 200 kts | 183° |
| 2026-04-30 22:17 | 59.61196 | 5.39778 | 16210 ft | 209 kts | 180° |
| 2026-04-30 22:17 | 59.59762 | 5.40082 | 16451 ft | 211 kts | 181° |
| 2026-04-30 22:17 | 59.56803 | 5.40852 | 16941 ft | 218 kts | 179° |
| 2026-04-30 22:18 | 59.55306 | 5.41245 | 17298 ft | 215 kts | 180° |
| 2026-04-30 22:18 | 59.52224 | 5.41979 | 17501 ft | 234 kts | 179° |
| 2026-04-30 22:19 | 59.48920 | 5.42854 | 17402 ft | 242 kts | 179° |
| 2026-04-30 22:19 | 59.47274 | 5.43250 | 17396 ft | 241 kts | 179° |
| 2026-04-30 22:19 | 59.43942 | 5.44095 | 17415 ft | 242 kts | 178° |
| 2026-04-30 22:20 | 59.42275 | 5.44508 | 17412 ft | 241 kts | 179° |
| 2026-04-30 22:20 | 59.38943 | 5.45418 | 17411 ft | 244 kts | 174° |
| 2026-04-30 22:20 | 59.37285 | 5.46163 | 17404 ft | 244 kts | 174° |
| 2026-04-30 22:21 | 59.35621 | 5.46747 | 17398 ft | 242 kts | 177° |
| 2026-04-30 22:21 | 59.33954 | 5.47273 | 17402 ft | 243 kts | 176° |
| 2026-04-30 22:21 | 59.32291 | 5.47916 | 17404 ft | 244 kts | 174° |
| 2026-04-30 22:21 | 59.30631 | 5.48566 | 17408 ft | 243 kts | 175° |
| 2026-04-30 22:22 | 59.28991 | 5.49126 | 17410 ft | 243 kts | 176° |
| 2026-04-30 22:22 | 59.27326 | 5.49705 | 17412 ft | 243 kts | 175° |
| 2026-04-30 22:22 | 59.25661 | 5.50338 | 17410 ft | 243 kts | 175° |
| 2026-04-30 22:22 | 59.23999 | 5.50955 | 17408 ft | 243 kts | 176° |
| 2026-04-30 22:23 | 59.22335 | 5.51534 | 17406 ft | 243 kts | 176° |
| 2026-04-30 22:23 | 59.20674 | 5.52128 | 17407 ft | 243 kts | 175° |
| 2026-04-30 22:23 | 59.19010 | 5.52743 | 17396 ft | 243 kts | 175° |
| 2026-04-30 22:23 | 59.17367 | 5.53341 | 17403 ft | 243 kts | 175° |
| 2026-04-30 22:24 | 59.15705 | 5.53931 | 17408 ft | 243 kts | 175° |
| 2026-04-30 22:24 | 59.14039 | 5.54529 | 17410 ft | 243 kts | 175° |
| 2026-04-30 22:24 | 59.12433 | 5.55115 | 17411 ft | 243 kts | 175° |
| 2026-04-30 22:24 | 59.10720 | 5.55731 | 17412 ft | 243 kts | 175° |
| 2026-04-30 22:25 | 59.09054 | 5.56324 | 17413 ft | 243 kts | 175° |
| 2026-04-30 22:25 | 59.07391 | 5.56922 | 17414 ft | 243 kts | 175° |
| 2026-04-30 22:25 | 59.05725 | 5.57523 | 17417 ft | 243 kts | 175° |
| 2026-04-30 22:25 | 59.04059 | 5.58119 | 17417 ft | 243 kts | 175° |
| 2026-04-30 22:26 | 59.00748 | 5.59302 | 17423 ft | 244 kts | 175° |
| 2026-04-30 22:26 | 58.99082 | 5.59899 | 17420 ft | 243 kts | 175° |
| 2026-04-30 22:26 | 58.97415 | 5.60492 | 17423 ft | 243 kts | 175° |
| 2026-04-30 22:27 | 58.95748 | 5.61085 | 17426 ft | 244 kts | 175° |
| 2026-04-30 22:27 | 58.94084 | 5.61680 | 17422 ft | 244 kts | 175° |
| 2026-04-30 22:27 | 58.90750 | 5.62862 | 17423 ft | 243 kts | 175° |
| 2026-04-30 22:28 | 58.87511 | 5.64813 | 17424 ft | 249 kts | 162° |
| 2026-04-30 22:28 | 58.85933 | 5.66204 | 17429 ft | 250 kts | 160° |
| 2026-04-30 22:29 | 58.81379 | 5.71232 | 17430 ft | 253 kts | 153° |
| 2026-04-30 22:29 | 58.79869 | 5.72953 | 17433 ft | 252 kts | 156° |
| 2026-04-30 22:30 | 58.73861 | 5.79861 | 17429 ft | 252 kts | 155° |
| 2026-04-30 22:31 | 58.69350 | 5.85099 | 17425 ft | 252 kts | 155° |
| 2026-04-30 22:32 | 58.64831 | 5.90290 | 17424 ft | 252 kts | 154° |
| 2026-04-30 22:32 | 58.61854 | 5.93690 | 17435 ft | 252 kts | 155° |
| 2026-04-30 22:33 | 58.57333 | 5.98879 | 17429 ft | 252 kts | 155° |
| 2026-04-30 22:33 | 58.54315 | 6.02320 | 17429 ft | 252 kts | 155° |
| 2026-04-30 22:34 | 58.49790 | 6.07476 | 17430 ft | 252 kts | 155° |
| 2026-04-30 22:35 | 58.46792 | 6.10889 | 17427 ft | 252 kts | 155° |
| 2026-04-30 22:36 | 58.40757 | 6.17726 | 17424 ft | 252 kts | 155° |
| 2026-04-30 22:36 | 58.39248 | 6.19431 | 17423 ft | 252 kts | 155° |
| 2026-04-30 22:37 | 58.34650 | 6.24380 | 17433 ft | 253 kts | 158° |
| 2026-04-30 22:37 | 58.33099 | 6.25872 | 17430 ft | 253 kts | 160° |
| 2026-04-30 22:37 | 58.29832 | 6.28177 | 17428 ft | 251 kts | 163° |
| 2026-04-30 22:38 | 58.26614 | 6.30748 | 17427 ft | 250 kts | 163° |
| 2026-04-30 22:38 | 58.23362 | 6.33112 | 17427 ft | 251 kts | 162° |
| 2026-04-30 22:39 | 58.21749 | 6.34382 | 17430 ft | 251 kts | 162° |
| 2026-04-30 22:39 | 58.16904 | 6.37992 | 17430 ft | 251 kts | 162° |
| 2026-04-30 22:40 | 58.12040 | 6.41634 | 17427 ft | 251 kts | 162° |
| 2026-04-30 22:41 | 58.07175 | 6.45280 | 17430 ft | 251 kts | 163° |
| 2026-04-30 22:41 | 58.03956 | 6.47682 | 17430 ft | 251 kts | 162° |
| 2026-04-30 22:42 | 57.97481 | 6.52493 | 17429 ft | 250 kts | 162° |
| 2026-04-30 22:43 | 57.94246 | 6.54886 | 17429 ft | 250 kts | 162° |
| 2026-04-30 22:43 | 57.91034 | 6.57265 | 17430 ft | 250 kts | 162° |
| 2026-04-30 22:44 | 57.87796 | 6.59651 | 17430 ft | 250 kts | 162° |
| 2026-04-30 22:45 | 57.81872 | 6.64012 | 17430 ft | 250 kts | 162° |
| 2026-04-30 22:45 | 57.78636 | 6.66388 | 17430 ft | 250 kts | 162° |
| 2026-04-30 22:46 | 57.74866 | 6.69149 | 17419 ft | 252 kts | 162° |
| 2026-04-30 22:47 | 57.68884 | 6.73518 | 17430 ft | 252 kts | 161° |
| 2026-04-30 22:47 | 57.65083 | 6.76287 | 17432 ft | 252 kts | 161° |
| 2026-04-30 22:48 | 57.62341 | 6.78278 | 17431 ft | 252 kts | 161° |
| 2026-04-30 22:49 | 57.57455 | 6.81824 | 17433 ft | 252 kts | 161° |
| 2026-04-30 22:49 | 57.52548 | 6.85372 | 17433 ft | 252 kts | 161° |
| 2026-04-30 22:50 | 57.46044 | 6.90056 | 17430 ft | 252 kts | 161° |
| 2026-04-30 22:51 | 57.42775 | 6.92407 | 17434 ft | 252 kts | 161° |
| 2026-04-30 22:51 | 57.39507 | 6.94747 | 17435 ft | 252 kts | 161° |
| 2026-04-30 22:52 | 57.37872 | 6.95920 | 17435 ft | 252 kts | 161° |
| 2026-04-30 22:52 | 57.34625 | 6.98242 | 17434 ft | 252 kts | 161° |
| 2026-04-30 22:53 | 57.31356 | 7.00576 | 17438 ft | 252 kts | 161° |
| 2026-04-30 22:53 | 57.28085 | 7.02905 | 17441 ft | 252 kts | 161° |
| 2026-04-30 22:53 | 57.26450 | 7.04068 | 17441 ft | 252 kts | 161° |
| 2026-04-30 22:54 | 57.23178 | 7.06393 | 17440 ft | 252 kts | 161° |
| 2026-04-30 22:55 | 57.18271 | 7.09872 | 17444 ft | 252 kts | 161° |
| 2026-04-30 22:55 | 57.15021 | 7.12166 | 17435 ft | 253 kts | 160° |
| 2026-04-30 22:56 | 57.11725 | 7.14491 | 17443 ft | 255 kts | 160° |
| 2026-04-30 22:56 | 57.06758 | 7.17992 | 17436 ft | 255 kts | 160° |
| 2026-04-30 22:57 | 57.03447 | 7.20315 | 17451 ft | 255 kts | 160° |
| 2026-04-30 22:57 | 57.00140 | 7.22541 | 17442 ft | 255 kts | 160° |
| 2026-04-30 22:58 | 56.96921 | 7.25267 | 17444 ft | 255 kts | 157° |
| 2026-04-30 22:59 | 56.92030 | 7.29108 | 17452 ft | 255 kts | 156° |
| 2026-04-30 22:59 | 56.87165 | 7.32936 | 17453 ft | 255 kts | 156° |